SCJK weather

Juan Kemp Airport
Osorno, Los Lagos Region, Chile

Public forecast

Using degrees Celsius for public forecast. Weather courtesy of forecast.io.

Closest aviation weather report (METAR) to Juan Kemp Airport

Closest report is Cañal Bajo Carlos - Hott Siebert Airport, 35.5 nm (65.7 km) WNW. Retrieved 2020/03/28 14:00 UTC (51 minutes ago):

SCJO 281400Z 00000KT 9999 SCT004 BKN100 12/11 Q1016

Closest aviation forecast (TAF) to Juan Kemp Airport

Closest forecast is Cañal Bajo Carlos - Hott Siebert Airport, 35.5 nm (65.7 km) WNW. Retrieved 2020/03/28 12:33 UTC (2 hours ago):

TAF SCJO 281041Z 2812/2824 VRB02KT 9999 BKN020 OVC100 TN11/2812Z TX17/2819Z BECMG 2816/2818 SCT025 BKN080 TEMPO 2819/2823 7000 -RA BKN020 OVC050 BECMG 2823/2824 18005KT FEW040